sensor_id;sensor_type;location;lat;lon;timestamp;P1;durP1;ratioP1;P2;durP2;ratioP2
48925;SDS011;39838;59.938;30.642;2023-02-15T00:01:26;7.57;;;3.97;;
48925;SDS011;39838;59.938;30.642;2023-02-15T00:03:53;10.25;;;4.07;;
48925;SDS011;39838;59.938;30.642;2023-02-15T00:06:22;12.27;;;4.40;;
48925;SDS011;39838;59.938;30.642;2023-02-15T00:08:50;10.52;;;4.40;;
48925;SDS011;39838;59.938;30.642;2023-02-15T00:11:18;7.97;;;4.45;;
48925;SDS011;39838;59.938;30.642;2023-02-15T00:14:05;10.95;;;3.90;;
48925;SDS011;39838;59.938;30.642;2023-02-15T00:16:34;8.32;;;3.83;;
48925;SDS011;39838;59.938;30.642;2023-02-15T00:19:02;9.88;;;3.70;;
48925;SDS011;39838;59.938;30.642;2023-02-15T00:21:31;9.88;;;4.00;;
48925;SDS011;39838;59.938;30.642;2023-02-15T00:24:01;6.68;;;3.47;;
48925;SDS011;39838;59.938;30.642;2023-02-15T00:26:29;9.32;;;3.90;;
48925;SDS011;39838;59.938;30.642;2023-02-15T00:28:57;6.20;;;3.50;;
48925;SDS011;39838;59.938;30.642;2023-02-15T00:31:25;7.97;;;3.88;;
48925;SDS011;39838;59.938;30.642;2023-02-15T00:33:53;10.55;;;4.05;;
48925;SDS011;39838;59.938;30.642;2023-02-15T00:36:21;7.13;;;3.80;;
48925;SDS011;39838;59.938;30.642;2023-02-15T00:38:50;7.30;;;3.88;;
48925;SDS011;39838;59.938;30.642;2023-02-15T00:41:17;8.63;;;4.03;;
48925;SDS011;39838;59.938;30.642;2023-02-15T00:43:45;8.57;;;4.00;;
48925;SDS011;39838;59.938;30.642;2023-02-15T00:46:12;9.25;;;5.00;;
48925;SDS011;39838;59.938;30.642;2023-02-15T00:48:40;9.70;;;5.00;;
48925;SDS011;39838;59.938;30.642;2023-02-15T00:51:07;11.88;;;4.88;;
48925;SDS011;39838;59.938;30.642;2023-02-15T00:53:35;14.85;;;6.38;;
48925;SDS011;39838;59.938;30.642;2023-02-15T00:56:04;15.00;;;6.82;;
48925;SDS011;39838;59.938;30.642;2023-02-15T00:58:31;18.38;;;6.20;;
48925;SDS011;39838;59.938;30.642;2023-02-15T01:01:02;11.93;;;5.47;;
48925;SDS011;39838;59.938;30.642;2023-02-15T01:03:31;15.40;;;6.03;;
48925;SDS011;39838;59.938;30.642;2023-02-15T01:05:59;17.13;;;6.13;;
48925;SDS011;39838;59.938;30.642;2023-02-15T01:08:27;14.68;;;5.68;;
48925;SDS011;39838;59.938;30.642;2023-02-15T01:10:55;12.07;;;5.22;;
48925;SDS011;39838;59.938;30.642;2023-02-15T01:13:24;13.02;;;4.85;;
48925;SDS011;39838;59.938;30.642;2023-02-15T01:15:52;11.05;;;5.10;;
48925;SDS011;39838;59.938;30.642;2023-02-15T01:18:21;10.63;;;4.78;;
48925;SDS011;39838;59.938;30.642;2023-02-15T01:20:48;11.73;;;5.10;;
48925;SDS011;39838;59.938;30.642;2023-02-15T01:23:16;11.95;;;4.85;;
48925;SDS011;39838;59.938;30.642;2023-02-15T01:25:43;12.05;;;4.88;;
48925;SDS011;39838;59.938;30.642;2023-02-15T01:28:11;9.60;;;4.60;;
48925;SDS011;39838;59.938;30.642;2023-02-15T01:30:40;12.35;;;4.90;;
48925;SDS011;39838;59.938;30.642;2023-02-15T01:33:09;8.02;;;4.68;;
48925;SDS011;39838;59.938;30.642;2023-02-15T01:35:43;11.35;;;5.22;;
48925;SDS011;39838;59.938;30.642;2023-02-15T01:38:12;14.02;;;4.95;;
48925;SDS011;39838;59.938;30.642;2023-02-15T01:40:40;11.40;;;4.68;;
48925;SDS011;39838;59.938;30.642;2023-02-15T01:43:09;13.18;;;5.30;;
48925;SDS011;39838;59.938;30.642;2023-02-15T01:45:38;11.88;;;5.50;;
48925;SDS011;39838;59.938;30.642;2023-02-15T01:48:14;11.73;;;5.15;;
48925;SDS011;39838;59.938;30.642;2023-02-15T01:50:48;11.25;;;5.00;;
48925;SDS011;39838;59.938;30.642;2023-02-15T01:53:20;10.23;;;4.82;;
48925;SDS011;39838;59.938;30.642;2023-02-15T01:55:53;12.95;;;5.25;;
48925;SDS011;39838;59.938;30.642;2023-02-15T01:58:24;11.93;;;4.97;;
48925;SDS011;39838;59.938;30.642;2023-02-15T02:00:56;15.57;;;5.43;;
48925;SDS011;39838;59.938;30.642;2023-02-15T02:03:29;11.73;;;5.00;;
48925;SDS011;39838;59.938;30.642;2023-02-15T02:06:04;13.02;;;5.20;;
48925;SDS011;39838;59.938;30.642;2023-02-15T02:08:31;14.75;;;5.50;;
48925;SDS011;39838;59.938;30.642;2023-02-15T02:10:59;13.30;;;6.07;;
48925;SDS011;39838;59.938;30.642;2023-02-15T02:13:27;11.15;;;5.70;;
48925;SDS011;39838;59.938;30.642;2023-02-15T02:16:17;16.52;;;6.05;;
48925;SDS011;39838;59.938;30.642;2023-02-15T02:18:49;12.48;;;5.75;;
48925;SDS011;39838;59.938;30.642;2023-02-15T02:24:50;15.23;;;7.25;;
48925;SDS011;39838;59.938;30.642;2023-02-15T02:27:40;14.48;;;6.55;;
48925;SDS011;39838;59.938;30.642;2023-02-15T02:30:20;17.08;;;7.45;;
48925;SDS011;39838;59.938;30.642;2023-02-15T02:33:10;14.47;;;6.53;;
48925;SDS011;39838;59.938;30.642;2023-02-15T02:35:56;17.83;;;6.47;;
48925;SDS011;39838;59.938;30.642;2023-02-15T02:38:32;15.18;;;6.80;;
48925;SDS011;39838;59.938;30.642;2023-02-15T02:41:11;13.68;;;6.47;;
48925;SDS011;39838;59.938;30.642;2023-02-15T02:43:46;15.93;;;7.55;;
48925;SDS011;39838;59.938;30.642;2023-02-15T02:46:20;12.25;;;6.80;;
48925;SDS011;39838;59.938;30.642;2023-02-15T02:48:52;14.85;;;7.30;;
48925;SDS011;39838;59.938;30.642;2023-02-15T02:51:21;15.80;;;6.97;;
48925;SDS011;39838;59.938;30.642;2023-02-15T02:53:50;15.55;;;7.20;;
48925;SDS011;39838;59.938;30.642;2023-02-15T02:56:22;16.08;;;6.70;;
48925;SDS011;39838;59.938;30.642;2023-02-15T02:58:54;15.27;;;6.53;;
48925;SDS011;39838;59.938;30.642;2023-02-15T03:01:27;18.42;;;6.55;;
48925;SDS011;39838;59.938;30.642;2023-02-15T03:03:58;13.10;;;6.78;;
48925;SDS011;39838;59.938;30.642;2023-02-15T03:06:38;15.80;;;6.60;;
48925;SDS011;39838;59.938;30.642;2023-02-15T03:09:10;10.45;;;5.72;;
48925;SDS011;39838;59.938;30.642;2023-02-15T03:11:46;14.20;;;5.72;;
48925;SDS011;39838;59.938;30.642;2023-02-15T03:14:15;11.65;;;5.70;;
48925;SDS011;39838;59.938;30.642;2023-02-15T03:16:46;11.35;;;5.95;;
48925;SDS011;39838;59.938;30.642;2023-02-15T03:19:19;12.52;;;6.00;;
48925;SDS011;39838;59.938;30.642;2023-02-15T03:24:30;15.07;;;6.45;;
48925;SDS011;39838;59.938;30.642;2023-02-15T03:27:02;16.65;;;5.80;;
48925;SDS011;39838;59.938;30.642;2023-02-15T03:29:33;14.80;;;6.03;;
48925;SDS011;39838;59.938;30.642;2023-02-15T03:32:04;13.40;;;5.82;;
48925;SDS011;39838;59.938;30.642;2023-02-15T03:34:37;12.35;;;5.72;;
48925;SDS011;39838;59.938;30.642;2023-02-15T03:37:05;12.45;;;6.00;;
48925;SDS011;39838;59.938;30.642;2023-02-15T03:39:41;16.08;;;6.63;;
48925;SDS011;39838;59.938;30.642;2023-02-15T03:42:13;13.25;;;7.05;;
48925;SDS011;39838;59.938;30.642;2023-02-15T03:44:46;15.10;;;6.82;;
48925;SDS011;39838;59.938;30.642;2023-02-15T03:47:19;12.95;;;5.88;;
48925;SDS011;39838;59.938;30.642;2023-02-15T03:49:54;12.73;;;6.00;;
48925;SDS011;39838;59.938;30.642;2023-02-15T03:52:25;12.85;;;6.32;;
48925;SDS011;39838;59.938;30.642;2023-02-15T03:54:53;14.80;;;6.15;;
48925;SDS011;39838;59.938;30.642;2023-02-15T03:57:21;14.68;;;6.53;;
48925;SDS011;39838;59.938;30.642;2023-02-15T04:00:11;13.82;;;6.55;;
48925;SDS011;39838;59.938;30.642;2023-02-15T04:03:02;13.32;;;6.78;;
48925;SDS011;39838;59.938;30.642;2023-02-15T04:05:37;14.88;;;7.68;;
48925;SDS011;39838;59.938;30.642;2023-02-15T04:08:05;16.08;;;7.22;;
48925;SDS011;39838;59.938;30.642;2023-02-15T04:10:33;13.57;;;6.82;;
48925;SDS011;39838;59.938;30.642;2023-02-15T04:13:18;16.98;;;6.88;;
48925;SDS011;39838;59.938;30.642;2023-02-15T04:15:45;15.82;;;6.68;;
48925;SDS011;39838;59.938;30.642;2023-02-15T04:18:30;15.70;;;6.40;;
48925;SDS011;39838;59.938;30.642;2023-02-15T04:21:17;15.25;;;7.43;;
48925;SDS011;39838;59.938;30.642;2023-02-15T04:24:03;18.10;;;8.15;;
48925;SDS011;39838;59.938;30.642;2023-02-15T04:26:48;20.05;;;8.25;;
48925;SDS011;39838;59.938;30.642;2023-02-15T04:29:18;23.52;;;9.32;;
48925;SDS011;39838;59.938;30.642;2023-02-15T04:31:46;23.45;;;9.32;;
48925;SDS011;39838;59.938;30.642;2023-02-15T04:34:14;29.65;;;10.93;;
48925;SDS011;39838;59.938;30.642;2023-02-15T04:36:43;29.65;;;11.23;;
48925;SDS011;39838;59.938;30.642;2023-02-15T04:39:11;27.15;;;11.20;;
48925;SDS011;39838;59.938;30.642;2023-02-15T04:41:40;29.52;;;11.50;;
48925;SDS011;39838;59.938;30.642;2023-02-15T04:44:07;27.77;;;11.20;;
48925;SDS011;39838;59.938;30.642;2023-02-15T04:46:36;27.27;;;12.25;;
48925;SDS011;39838;59.938;30.642;2023-02-15T04:49:03;27.63;;;10.88;;
48925;SDS011;39838;59.938;30.642;2023-02-15T04:51:31;32.83;;;12.18;;
48925;SDS011;39838;59.938;30.642;2023-02-15T04:54:00;27.52;;;10.75;;
48925;SDS011;39838;59.938;30.642;2023-02-15T04:56:27;28.40;;;11.48;;
48925;SDS011;39838;59.938;30.642;2023-02-15T04:58:55;23.83;;;10.27;;
48925;SDS011;39838;59.938;30.642;2023-02-15T05:01:22;28.90;;;10.95;;
48925;SDS011;39838;59.938;30.642;2023-02-15T05:03:50;26.25;;;11.32;;
48925;SDS011;39838;59.938;30.642;2023-02-15T05:06:17;31.40;;;10.73;;
48925;SDS011;39838;59.938;30.642;2023-02-15T05:08:45;32.35;;;11.50;;
48925;SDS011;39838;59.938;30.642;2023-02-15T05:11:14;25.35;;;10.52;;
48925;SDS011;39838;59.938;30.642;2023-02-15T05:13:41;31.77;;;10.98;;
48925;SDS011;39838;59.938;30.642;2023-02-15T05:16:09;28.92;;;10.82;;
48925;SDS011;39838;59.938;30.642;2023-02-15T05:18:36;25.98;;;10.27;;
48925;SDS011;39838;59.938;30.642;2023-02-15T05:21:04;25.35;;;11.02;;
48925;SDS011;39838;59.938;30.642;2023-02-15T05:23:31;20.67;;;10.15;;
48925;SDS011;39838;59.938;30.642;2023-02-15T05:25:58;22.17;;;10.10;;
48925;SDS011;39838;59.938;30.642;2023-02-15T05:28:45;21.50;;;10.02;;
48925;SDS011;39838;59.938;30.642;2023-02-15T05:31:13;24.38;;;9.70;;
48925;SDS011;39838;59.938;30.642;2023-02-15T05:33:42;18.67;;;9.32;;
48925;SDS011;39838;59.938;30.642;2023-02-15T05:36:10;20.60;;;9.43;;
48925;SDS011;39838;59.938;30.642;2023-02-15T05:38:38;17.38;;;8.57;;
48925;SDS011;39838;59.938;30.642;2023-02-15T05:41:06;19.17;;;9.13;;
48925;SDS011;39838;59.938;30.642;2023-02-15T05:43:34;19.15;;;9.20;;
48925;SDS011;39838;59.938;30.642;2023-02-15T05:46:03;17.90;;;9.43;;
48925;SDS011;39838;59.938;30.642;2023-02-15T05:48:31;17.67;;;8.75;;
48925;SDS011;39838;59.938;30.642;2023-02-15T05:51:00;20.60;;;9.40;;
48925;SDS011;39838;59.938;30.642;2023-02-15T05:53:30;22.20;;;9.68;;
48925;SDS011;39838;59.938;30.642;2023-02-15T05:55:58;20.75;;;9.95;;
48925;SDS011;39838;59.938;30.642;2023-02-15T05:58:28;21.52;;;9.82;;
48925;SDS011;39838;59.938;30.642;2023-02-15T06:00:56;17.33;;;9.10;;
48925;SDS011;39838;59.938;30.642;2023-02-15T06:03:25;22.67;;;9.18;;
48925;SDS011;39838;59.938;30.642;2023-02-15T06:05:54;20.63;;;10.27;;
48925;SDS011;39838;59.938;30.642;2023-02-15T06:08:21;17.30;;;9.02;;
48925;SDS011;39838;59.938;30.642;2023-02-15T06:10:48;18.70;;;9.32;;
48925;SDS011;39838;59.938;30.642;2023-02-15T06:13:16;19.63;;;10.23;;
48925;SDS011;39838;59.938;30.642;2023-02-15T06:15:43;18.67;;;9.45;;
48925;SDS011;39838;59.938;30.642;2023-02-15T06:18:11;18.70;;;10.07;;
48925;SDS011;39838;59.938;30.642;2023-02-15T06:20:40;18.73;;;9.85;;
48925;SDS011;39838;59.938;30.642;2023-02-15T06:23:07;21.13;;;10.15;;
48925;SDS011;39838;59.938;30.642;2023-02-15T06:25:35;19.65;;;10.20;;
48925;SDS011;39838;59.938;30.642;2023-02-15T06:28:02;20.70;;;11.27;;
48925;SDS011;39838;59.938;30.642;2023-02-15T06:30:30;21.23;;;10.55;;
48925;SDS011;39838;59.938;30.642;2023-02-15T06:32:57;21.05;;;11.30;;
48925;SDS011;39838;59.938;30.642;2023-02-15T06:35:25;24.67;;;12.35;;
48925;SDS011;39838;59.938;30.642;2023-02-15T06:37:54;23.92;;;13.30;;
48925;SDS011;39838;59.938;30.642;2023-02-15T06:40:21;24.50;;;12.63;;
48925;SDS011;39838;59.938;30.642;2023-02-15T06:42:49;22.08;;;12.57;;
48925;SDS011;39838;59.938;30.642;2023-02-15T06:45:16;21.88;;;12.40;;
48925;SDS011;39838;59.938;30.642;2023-02-15T06:47:44;25.40;;;12.48;;
48925;SDS011;39838;59.938;30.642;2023-02-15T06:50:11;23.52;;;12.23;;
48925;SDS011;39838;59.938;30.642;2023-02-15T06:52:39;24.95;;;12.63;;
48925;SDS011;39838;59.938;30.642;2023-02-15T06:55:08;27.15;;;12.55;;
48925;SDS011;39838;59.938;30.642;2023-02-15T06:57:35;21.63;;;12.25;;
48925;SDS011;39838;59.938;30.642;2023-02-15T07:00:03;24.25;;;12.48;;
48925;SDS011;39838;59.938;30.642;2023-02-15T07:02:32;24.25;;;12.32;;
48925;SDS011;39838;59.938;30.642;2023-02-15T07:04:59;24.95;;;11.85;;
48925;SDS011;39838;59.938;30.642;2023-02-15T07:07:27;28.50;;;12.65;;
48925;SDS011;39838;59.938;30.642;2023-02-15T07:09:54;26.10;;;12.82;;
48925;SDS011;39838;59.938;30.642;2023-02-15T07:12:23;24.55;;;12.70;;
48925;SDS011;39838;59.938;30.642;2023-02-15T07:15:10;24.02;;;12.20;;
48925;SDS011;39838;59.938;30.642;2023-02-15T07:17:39;21.88;;;11.27;;
48925;SDS011;39838;59.938;30.642;2023-02-15T07:20:07;23.35;;;10.68;;
48925;SDS011;39838;59.938;30.642;2023-02-15T07:22:40;22.67;;;11.23;;
48925;SDS011;39838;59.938;30.642;2023-02-15T07:25:08;20.65;;;10.65;;
48925;SDS011;39838;59.938;30.642;2023-02-15T07:27:39;23.55;;;11.30;;
48925;SDS011;39838;59.938;30.642;2023-02-15T07:30:07;22.73;;;11.20;;
48925;SDS011;39838;59.938;30.642;2023-02-15T07:32:37;22.95;;;11.18;;
48925;SDS011;39838;59.938;30.642;2023-02-15T07:35:25;25.83;;;11.50;;
48925;SDS011;39838;59.938;30.642;2023-02-15T07:37:52;25.08;;;12.73;;
48925;SDS011;39838;59.938;30.642;2023-02-15T07:40:20;20.50;;;10.77;;
48925;SDS011;39838;59.938;30.642;2023-02-15T07:42:50;31.20;;;11.90;;
48925;SDS011;39838;59.938;30.642;2023-02-15T07:45:20;19.70;;;10.95;;
48925;SDS011;39838;59.938;30.642;2023-02-15T07:47:47;20.02;;;11.30;;
48925;SDS011;39838;59.938;30.642;2023-02-15T07:50:15;29.25;;;12.15;;
48925;SDS011;39838;59.938;30.642;2023-02-15T07:52:43;25.73;;;12.27;;
48925;SDS011;39838;59.938;30.642;2023-02-15T07:55:11;25.67;;;12.13;;
48925;SDS011;39838;59.938;30.642;2023-02-15T07:57:41;22.90;;;11.68;;
48925;SDS011;39838;59.938;30.642;2023-02-15T08:00:12;23.98;;;11.73;;
48925;SDS011;39838;59.938;30.642;2023-02-15T08:02:41;21.98;;;11.18;;
48925;SDS011;39838;59.938;30.642;2023-02-15T08:05:08;22.17;;;11.13;;
48925;SDS011;39838;59.938;30.642;2023-02-15T08:07:36;22.67;;;11.48;;
48925;SDS011;39838;59.938;30.642;2023-02-15T08:10:03;21.33;;;10.57;;
48925;SDS011;39838;59.938;30.642;2023-02-15T08:12:32;20.98;;;10.65;;
48925;SDS011;39838;59.938;30.642;2023-02-15T08:14:59;20.90;;;10.60;;
48925;SDS011;39838;59.938;30.642;2023-02-15T08:17:30;21.10;;;11.57;;
48925;SDS011;39838;59.938;30.642;2023-02-15T08:19:57;22.83;;;11.10;;
48925;SDS011;39838;59.938;30.642;2023-02-15T08:22:24;23.83;;;11.65;;
48925;SDS011;39838;59.938;30.642;2023-02-15T08:24:51;26.20;;;11.85;;
48925;SDS011;39838;59.938;30.642;2023-02-15T08:27:18;24.58;;;12.00;;
48925;SDS011;39838;59.938;30.642;2023-02-15T08:29:51;28.65;;;12.75;;
48925;SDS011;39838;59.938;30.642;2023-02-15T08:32:19;23.67;;;11.27;;
48925;SDS011;39838;59.938;30.642;2023-02-15T08:34:48;24.33;;;11.60;;
48925;SDS011;39838;59.938;30.642;2023-02-15T08:37:15;25.27;;;11.77;;
48925;SDS011;39838;59.938;30.642;2023-02-15T08:39:42;27.23;;;12.57;;
48925;SDS011;39838;59.938;30.642;2023-02-15T08:42:09;25.67;;;11.73;;
48925;SDS011;39838;59.938;30.642;2023-02-15T08:44:36;27.90;;;13.85;;
48925;SDS011;39838;59.938;30.642;2023-02-15T08:47:03;24.45;;;12.20;;
48925;SDS011;39838;59.938;30.642;2023-02-15T08:49:30;28.13;;;12.48;;
48925;SDS011;39838;59.938;30.642;2023-02-15T08:51:59;22.17;;;11.38;;
48925;SDS011;39838;59.938;30.642;2023-02-15T08:54:26;26.15;;;11.10;;
48925;SDS011;39838;59.938;30.642;2023-02-15T08:56:53;23.38;;;11.18;;
48925;SDS011;39838;59.938;30.642;2023-02-15T08:59:21;21.35;;;10.95;;
48925;SDS011;39838;59.938;30.642;2023-02-15T09:01:50;20.27;;;10.30;;
48925;SDS011;39838;59.938;30.642;2023-02-15T09:04:18;19.67;;;10.20;;
48925;SDS011;39838;59.938;30.642;2023-02-15T09:06:46;19.85;;;10.45;;
48925;SDS011;39838;59.938;30.642;2023-02-15T09:09:15;21.23;;;10.00;;
48925;SDS011;39838;59.938;30.642;2023-02-15T09:11:44;22.52;;;9.98;;
48925;SDS011;39838;59.938;30.642;2023-02-15T09:14:16;21.98;;;10.00;;
48925;SDS011;39838;59.938;30.642;2023-02-15T09:16:45;23.27;;;10.48;;
48925;SDS011;39838;59.938;30.642;2023-02-15T09:19:16;21.67;;;10.63;;
48925;SDS011;39838;59.938;30.642;2023-02-15T09:21:44;23.00;;;10.60;;
48925;SDS011;39838;59.938;30.642;2023-02-15T09:24:12;20.65;;;10.10;;
48925;SDS011;39838;59.938;30.642;2023-02-15T09:26:44;24.40;;;11.23;;
48925;SDS011;39838;59.938;30.642;2023-02-15T09:29:13;21.75;;;10.35;;
48925;SDS011;39838;59.938;30.642;2023-02-15T09:31:42;21.23;;;10.70;;
48925;SDS011;39838;59.938;30.642;2023-02-15T09:34:11;28.52;;;10.50;;
48925;SDS011;39838;59.938;30.642;2023-02-15T09:36:39;19.95;;;10.70;;
48925;SDS011;39838;59.938;30.642;2023-02-15T09:39:07;21.10;;;11.00;;
48925;SDS011;39838;59.938;30.642;2023-02-15T09:44:45;22.65;;;11.15;;
48925;SDS011;39838;59.938;30.642;2023-02-15T09:47:38;22.02;;;11.38;;
48925;SDS011;39838;59.938;30.642;2023-02-15T09:50:21;21.70;;;10.93;;
48925;SDS011;39838;59.938;30.642;2023-02-15T09:53:02;23.85;;;10.85;;
48925;SDS011;39838;59.938;30.642;2023-02-15T09:55:45;20.40;;;10.68;;
48925;SDS011;39838;59.938;30.642;2023-02-15T09:58:22;24.38;;;11.45;;
48925;SDS011;39838;59.938;30.642;2023-02-15T10:01:02;27.83;;;12.60;;
48925;SDS011;39838;59.938;30.642;2023-02-15T10:03:42;31.88;;;12.52;;
48925;SDS011;39838;59.938;30.642;2023-02-15T10:06:29;30.58;;;14.90;;
48925;SDS011;39838;59.938;30.642;2023-02-15T10:09:19;28.05;;;13.30;;
48925;SDS011;39838;59.938;30.642;2023-02-15T10:15:08;31.15;;;14.65;;
48925;SDS011;39838;59.938;30.642;2023-02-15T10:17:49;26.80;;;12.60;;
48925;SDS011;39838;59.938;30.642;2023-02-15T10:20:29;24.50;;;12.57;;
48925;SDS011;39838;59.938;30.642;2023-02-15T10:23:08;22.00;;;11.95;;
48925;SDS011;39838;59.938;30.642;2023-02-15T10:25:59;21.65;;;9.63;;
48925;SDS011;39838;59.938;30.642;2023-02-15T10:28:31;25.30;;;10.90;;
48925;SDS011;39838;59.938;30.642;2023-02-15T10:31:11;23.67;;;12.27;;
48925;SDS011;39838;59.938;30.642;2023-02-15T10:33:47;19.38;;;10.50;;
48925;SDS011;39838;59.938;30.642;2023-02-15T10:36:26;22.58;;;11.43;;
48925;SDS011;39838;59.938;30.642;2023-02-15T10:39:05;23.75;;;11.45;;
48925;SDS011;39838;59.938;30.642;2023-02-15T10:41:41;20.60;;;10.60;;
48925;SDS011;39838;59.938;30.642;2023-02-15T10:44:22;19.13;;;10.75;;
48925;SDS011;39838;59.938;30.642;2023-02-15T10:47:08;23.80;;;10.82;;
48925;SDS011;39838;59.938;30.642;2023-02-15T10:49:58;22.83;;;10.90;;
48925;SDS011;39838;59.938;30.642;2023-02-15T10:52:46;19.67;;;9.82;;
48925;SDS011;39838;59.938;30.642;2023-02-15T10:55:25;15.80;;;9.50;;
48925;SDS011;39838;59.938;30.642;2023-02-15T10:58:06;20.48;;;9.60;;
48925;SDS011;39838;59.938;30.642;2023-02-15T11:00:40;17.70;;;9.35;;
48925;SDS011;39838;59.938;30.642;2023-02-15T11:03:17;17.73;;;9.30;;
48925;SDS011;39838;59.938;30.642;2023-02-15T11:05:59;16.98;;;8.68;;
48925;SDS011;39838;59.938;30.642;2023-02-15T11:08:32;19.58;;;9.77;;
48925;SDS011;39838;59.938;30.642;2023-02-15T11:11:03;14.90;;;8.32;;
48925;SDS011;39838;59.938;30.642;2023-02-15T11:13:34;18.67;;;8.05;;
48925;SDS011;39838;59.938;30.642;2023-02-15T11:16:07;13.88;;;7.88;;
48925;SDS011;39838;59.938;30.642;2023-02-15T11:18:38;16.48;;;8.20;;
48925;SDS011;39838;59.938;30.642;2023-02-15T11:21:13;13.05;;;7.35;;
48925;SDS011;39838;59.938;30.642;2023-02-15T11:23:45;16.15;;;7.38;;
48925;SDS011;39838;59.938;30.642;2023-02-15T11:26:15;14.32;;;6.88;;
48925;SDS011;39838;59.938;30.642;2023-02-15T11:28:47;13.60;;;6.00;;
48925;SDS011;39838;59.938;30.642;2023-02-15T11:31:21;9.80;;;5.32;;
48925;SDS011;39838;59.938;30.642;2023-02-15T11:33:50;10.88;;;5.55;;
48925;SDS011;39838;59.938;30.642;2023-02-15T11:36:24;11.73;;;5.30;;
48925;SDS011;39838;59.938;30.642;2023-02-15T11:38:56;14.40;;;5.93;;
48925;SDS011;39838;59.938;30.642;2023-02-15T11:41:29;13.90;;;5.80;;
48925;SDS011;39838;59.938;30.642;2023-02-15T11:44:04;10.45;;;5.68;;
48925;SDS011;39838;59.938;30.642;2023-02-15T11:46:38;13.98;;;6.50;;
48925;SDS011;39838;59.938;30.642;2023-02-15T11:49:08;12.65;;;6.53;;
48925;SDS011;39838;59.938;30.642;2023-02-15T11:51:45;15.88;;;6.47;;
48925;SDS011;39838;59.938;30.642;2023-02-15T11:54:12;12.65;;;6.38;;
48925;SDS011;39838;59.938;30.642;2023-02-15T11:56:40;13.43;;;6.65;;
48925;SDS011;39838;59.938;30.642;2023-02-15T11:59:09;13.85;;;6.50;;
48925;SDS011;39838;59.938;30.642;2023-02-15T12:01:40;14.88;;;6.85;;
48925;SDS011;39838;59.938;30.642;2023-02-15T12:04:10;14.82;;;6.32;;
48925;SDS011;39838;59.938;30.642;2023-02-15T12:06:46;14.23;;;6.68;;
48925;SDS011;39838;59.938;30.642;2023-02-15T12:09:20;14.60;;;6.68;;
48925;SDS011;39838;59.938;30.642;2023-02-15T12:11:54;16.58;;;6.68;;
48925;SDS011;39838;59.938;30.642;2023-02-15T12:14:46;12.82;;;6.88;;
48925;SDS011;39838;59.938;30.642;2023-02-15T12:17:14;16.35;;;6.97;;
48925;SDS011;39838;59.938;30.642;2023-02-15T12:19:43;11.90;;;6.43;;
48925;SDS011;39838;59.938;30.642;2023-02-15T12:22:21;13.57;;;7.13;;
48925;SDS011;39838;59.938;30.642;2023-02-15T12:24:52;17.27;;;6.88;;
48925;SDS011;39838;59.938;30.642;2023-02-15T12:27:22;17.50;;;7.00;;
48925;SDS011;39838;59.938;30.642;2023-02-15T12:29:52;23.38;;;7.93;;
48925;SDS011;39838;59.938;30.642;2023-02-15T12:32:23;14.23;;;7.10;;
48925;SDS011;39838;59.938;30.642;2023-02-15T12:34:54;17.90;;;7.95;;
48925;SDS011;39838;59.938;30.642;2023-02-15T12:37:25;18.90;;;7.50;;
48925;SDS011;39838;59.938;30.642;2023-02-15T12:39:56;17.70;;;7.80;;
48925;SDS011;39838;59.938;30.642;2023-02-15T12:42:25;15.57;;;7.30;;
48925;SDS011;39838;59.938;30.642;2023-02-15T12:44:58;17.73;;;7.57;;
48925;SDS011;39838;59.938;30.642;2023-02-15T12:47:26;17.15;;;6.70;;
48925;SDS011;39838;59.938;30.642;2023-02-15T12:50:06;18.08;;;6.40;;
48925;SDS011;39838;59.938;30.642;2023-02-15T12:52:46;20.08;;;6.53;;
48925;SDS011;39838;59.938;30.642;2023-02-15T12:55:19;14.57;;;6.55;;
48925;SDS011;39838;59.938;30.642;2023-02-15T12:57:48;12.80;;;5.68;;
48925;SDS011;39838;59.938;30.642;2023-02-15T13:00:26;13.88;;;6.18;;
48925;SDS011;39838;59.938;30.642;2023-02-15T13:02:57;17.15;;;6.10;;
48925;SDS011;39838;59.938;30.642;2023-02-15T13:05:26;12.73;;;6.13;;
48925;SDS011;39838;59.938;30.642;2023-02-15T13:08:00;16.38;;;6.38;;
48925;SDS011;39838;59.938;30.642;2023-02-15T13:10:31;11.52;;;5.85;;
48925;SDS011;39838;59.938;30.642;2023-02-15T13:13:00;13.00;;;5.70;;
48925;SDS011;39838;59.938;30.642;2023-02-15T13:15:30;13.27;;;5.65;;
48925;SDS011;39838;59.938;30.642;2023-02-15T13:18:01;13.43;;;5.63;;
48925;SDS011;39838;59.938;30.642;2023-02-15T13:20:31;14.52;;;5.07;;
48925;SDS011;39838;59.938;30.642;2023-02-15T13:23:03;12.60;;;5.15;;
48925;SDS011;39838;59.938;30.642;2023-02-15T13:25:35;12.27;;;5.07;;
48925;SDS011;39838;59.938;30.642;2023-02-15T13:28:16;12.75;;;5.25;;
48925;SDS011;39838;59.938;30.642;2023-02-15T13:30:46;10.63;;;5.03;;
48925;SDS011;39838;59.938;30.642;2023-02-15T13:33:16;8.85;;;4.65;;
48925;SDS011;39838;59.938;30.642;2023-02-15T13:35:55;12.85;;;5.13;;
48925;SDS011;39838;59.938;30.642;2023-02-15T13:38:34;9.38;;;4.93;;
48925;SDS011;39838;59.938;30.642;2023-02-15T13:43:44;11.70;;;5.35;;
48925;SDS011;39838;59.938;30.642;2023-02-15T13:46:22;11.32;;;5.40;;
48925;SDS011;39838;59.938;30.642;2023-02-15T13:49:04;9.25;;;5.10;;
48925;SDS011;39838;59.938;30.642;2023-02-15T13:51:43;12.77;;;5.03;;
48925;SDS011;39838;59.938;30.642;2023-02-15T13:56:58;12.63;;;5.10;;
48925;SDS011;39838;59.938;30.642;2023-02-15T13:59:47;11.43;;;5.35;;
48925;SDS011;39838;59.938;30.642;2023-02-15T14:02:37;12.25;;;5.55;;
48925;SDS011;39838;59.938;30.642;2023-02-15T14:05:25;14.05;;;5.55;;
48925;SDS011;39838;59.938;30.642;2023-02-15T14:08:01;13.45;;;5.57;;
48925;SDS011;39838;59.938;30.642;2023-02-15T14:10:40;16.58;;;5.80;;
48925;SDS011;39838;59.938;30.642;2023-02-15T14:13:35;13.32;;;5.38;;
48925;SDS011;39838;59.938;30.642;2023-02-15T14:16:31;13.63;;;5.75;;
48925;SDS011;39838;59.938;30.642;2023-02-15T14:19:14;12.68;;;5.45;;
48925;SDS011;39838;59.938;30.642;2023-02-15T14:21:47;10.38;;;5.00;;
48925;SDS011;39838;59.938;30.642;2023-02-15T14:24:25;10.45;;;5.00;;
48925;SDS011;39838;59.938;30.642;2023-02-15T14:27:02;16.20;;;5.35;;
48925;SDS011;39838;59.938;30.642;2023-02-15T14:29:46;10.50;;;5.03;;
48925;SDS011;39838;59.938;30.642;2023-02-15T14:32:20;11.00;;;5.30;;
48925;SDS011;39838;59.938;30.642;2023-02-15T14:34:52;12.43;;;5.05;;
48925;SDS011;39838;59.938;30.642;2023-02-15T14:37:24;13.15;;;5.10;;
48925;SDS011;39838;59.938;30.642;2023-02-15T14:40:00;11.07;;;5.47;;
48925;SDS011;39838;59.938;30.642;2023-02-15T14:42:53;14.32;;;5.10;;
48925;SDS011;39838;59.938;30.642;2023-02-15T14:45:25;9.95;;;4.75;;
48925;SDS011;39838;59.938;30.642;2023-02-15T14:48:09;9.38;;;4.75;;
48925;SDS011;39838;59.938;30.642;2023-02-15T14:50:43;11.25;;;5.25;;
48925;SDS011;39838;59.938;30.642;2023-02-15T14:53:15;12.55;;;4.93;;
48925;SDS011;39838;59.938;30.642;2023-02-15T14:55:43;11.00;;;4.80;;
48925;SDS011;39838;59.938;30.642;2023-02-15T14:58:12;11.88;;;5.20;;
48925;SDS011;39838;59.938;30.642;2023-02-15T15:00:40;12.95;;;4.95;;
48925;SDS011;39838;59.938;30.642;2023-02-15T15:03:16;11.52;;;5.30;;
48925;SDS011;39838;59.938;30.642;2023-02-15T15:05:49;12.35;;;4.85;;